Home > Products > Valid Products > TAF

000
FTUS42 KCHS 191600 AAB
TAFSAV
TAF AMD
KSAV 191601Z 1916/2012 01009KT 6SM -SHRA BKN006 OVC010
     FM200200 01012G17KT P6SM VCSH SCT004 OVC007=



000
FTUS42 KCHS 191500 AAB
TAFCHS
TAF AMD
KCHS 191545Z 1916/2012 02009KT 6SM -DZ BR OVC005
     FM200000 01013G22KT 6SM BR VCSH OVC006
     FM200800 01014G24KT 6SM BR SCT006 BKN010=



000
FTUS42 KCHS 191400 AAA
TAFCHS
TAF AMD
KCHS 191417Z 1914/2012 01009KT 4SM -DZ BR OVC003
     FM191700 02010KT 5SM -RA BR OVC005
     FM200000 01013G22KT 6SM BR VCSH OVC006
     FM200800 01014G24KT 6SM BR SCT006 BKN010=



000
FTUS42 KCHS 191400 AAA
TAFSAV
TAF AMD
KSAV 191412Z 1914/2012 01009KT 4SM -RA BR BKN004 OVC008
     FM191700 02010KT 6SM -SHRA SCT005 OVC007
     FM200200 01012G17KT P6SM VCSH SCT004 OVC007=



000
FTUS42 KCHS 191100 CCA
TAFCHS
TAF COR
KCHS 191138Z 1912/2012 02009KT 5SM BR OVC005
      TEMPO 1912/1914 2SM -DZ BR OVC003
     FM191600 02010KT P6SM VCSH BKN009 OVC015
     FM200000 01012G17KT P6SM VCSH OVC008=



000
FTUS42 KCHS 191100
TAFCHS
TAF
KCHS 191126Z 1912/2012 02009KT 6SM BR OVC005
      TEMPO 1912/1914 3SM BR OVC003
     FM191600 02010KT P6SM VCSH BKN009 OVC015
     FM200000 01012G17KT P6SM VCSH OVC008=



000
FTUS42 KCHS 191100
TAFSAV
TAF
KSAV 191126Z 1912/2012 02009KT 4SM -RA BR BKN004 OVC007
     FM191400 02009KT 6SM BR VCSH SCT005 OVC007
     FM191700 02010KT 6SM -SHRA SCT009 OVC015
     FM200200 01012G17KT P6SM VCSH BKN009 OVC015=



000
FTUS42 KCHS 190900 AAA
TAFCHS
TAF AMD
KCHS 190918Z 1909/2006 05008KT 6SM -RA OVC007
     FM191100 02007KT P6SM VCSH OVC005
     FM191700 02010KT P6SM SCT008 OVC015
     FM200000 01012KT 6SM -SHRA BKN009 OVC015=



000
FTUS42 KCHS 190500
TAFSAV
TAF
KSAV 190534Z 1906/2006 03006KT P6SM OVC004
     FM191300 36008KT P6SM OVC007
     FM191700 02010KT 6SM -SHRA BKN009 OVC014
     FM200200 01012KT P6SM VCSH BKN009 OVC015=



000
FTUS42 KCHS 190500
TAFCHS
TAF
KCHS 190534Z 1906/2006 07012G19KT 5SM RA BKN007 OVC025
      TEMPO 1906/1908 2SM +RA BR
     FM191100 02007KT P6SM VCSH OVC005
     FM191700 02010KT P6SM SCT008 OVC015
     FM200000 01012KT 6SM -SHRA BKN009 OVC015=



000
FTUS42 KCHS 190400 AAA
TAFCHS
TAF AMD
KCHS 190423Z 1904/1924 05015G22KT 4SM -RA BR BKN007
     FM190600 04008KT 5SM -SHRA BR SCT005 BKN012
     FM191100 02007KT P6SM BKN015
     FM191600 34010KT P6SM BKN025=



000
FTUS42 KCHS 190300 AAB
TAFSAV
TAF AMD
KSAV 190346Z 1904/1924 06009KT P6SM BKN006
     FM190500 01007KT P6SM SCT004 BKN010
     FM191100 36008KT P6SM BKN015=



000
FTUS42 KCHS 190100 AAA
TAFSAV
TAF AMD
KSAV 190101Z 1901/1924 04012KT 6SM -SHRA BR BKN006
      TEMPO 1901/1904 4SM RA SCT012 BKN020
     FM190500 01007KT P6SM SCT004 BKN010
     FM191100 36008KT P6SM BKN015=



000
FTUS42 KCHS 182300
TAFSAV
TAF
KSAV 182321Z 1900/1924 06017G25KT 4SM -SHRA BR SCT007 BKN012
      TEMPO 1900/1902 2SM RA SCT012 BKN020
     FM190200 02008KT 5SM -SHRA BR BKN015
     FM190500 01007KT P6SM SCT004 BKN010
     FM191100 36008KT P6SM BKN015=



000
FTUS42 KCHS 182300
TAFCHS
TAF
KCHS 182321Z 1900/1924 05015G22KT 2SM RA BR SCT007 BKN015
      TEMPO 1900/1903 1/2SM +RA FG SCT012 BKN020
     FM190500 04008KT 5SM -SHRA BR SCT005 BKN012
     FM191100 02007KT P6SM BKN015
     FM191600 34010KT P6SM BKN025=



000
FTUS42 KCHS 181900 AAA
TAFCHS
TAF AMD
KCHS 181918Z 1819/1918 06014G22KT P6SM -SHRA SCT015 BKN060
     FM182100 07013G18KT 4SM RA OVC015
     FM190000 07012KT 3SM RA BR BKN008 OVC015=



000
FTUS42 KCHS 181900 AAA
TAFSAV
TAF AMD
KSAV 181901Z 1819/1918 06017G25KT 2SM +RA BR BKN008 OVC012
     FM190400 08012KT 4SM RA BR BKN006 OVC012
     FM191700 07015KT 5SM -SHRA BKN015=



000
FTUS42 KCHS 181700
TAFSAV
TAF
KSAV 181726Z 1818/1918 06017G25KT 4SM RA BR OVC013
     FM182000 08013G18KT 2SM +RA BR BKN008 OVC012
     FM190400 08012KT 4SM RA BR BKN006 OVC012
     FM191700 07015KT 5SM -SHRA BKN015=



000
FTUS42 KCHS 181700
TAFCHS
TAF
KCHS 181726Z 1818/1918 06014G22KT 6SM -SHRA SCT015 BKN060
      TEMPO 1818/1821 BKN020
     FM182100 07013G18KT 4SM RA OVC015
     FM190000 07012KT 3SM RA BR BKN008 OVC015=



000
FTUS42 KCHS 181100
TAFSAV
TAF
KSAV 181128Z 1812/1912 06013KT P6SM VCSH BKN015 OVC030
     FM181300 06015G21KT 6SM -SHRA SCT009 OVC025
     FM181700 06017G25KT 5SM RA SCT008 OVC013
     FM182100 08013G18KT 2SM +RA BR BKN008 OVC012
     FM190700 08012KT 5SM RA BR BKN006 OVC012=



000
FTUS42 KCHS 181100
TAFCHS
TAF
KCHS 181128Z 1812/1912 04010KT P6SM SCT025 BKN040
     FM181400 06014G22KT P6SM SCT015 BKN035
      TEMPO 1818/1821 6SM -SHRA SCT010 BKN020
     FM182100 07013G18KT 5SM RA SCT008 OVC015
     FM190000 06012KT 3SM RA BR BKN008 OVC015=



000
FTUS42 KCHS 180500
TAFCHS
TAF
KCHS 180527Z 1806/1906 06006KT P6SM BKN250
     FM181000 03010G16KT P6SM SCT025 BKN040
     FM181400 03012G19KT P6SM SCT015 BKN035
      TEMPO 1820/1823 6SM -RA SCT010 BKN020
     FM182300 06013G21KT 4SM RA BR SCT008 OVC015=



000
FTUS42 KCHS 180500
TAFSAV
TAF
KSAV 180527Z 1806/1906 05009KT P6SM SCT060 OVC200
     FM181100 04012G18KT P6SM SCT015 BKN025
      TEMPO 1815/1818 6SM -RA SCT009 BKN015
     FM181800 06015G23KT 5SM RA BR SCT009 OVC018
     FM182100 08013KT 3SM RA BR BKN007 OVC012=



000
FTUS42 KCHS 172300
TAFSAV
TAF
KSAV 172321Z 1800/1824 11010KT P6SM BKN060
     FM180300 07008KT P6SM SCT060
     FM180800 04010KT P6SM SCT020 BKN040
     FM181000 04012KT P6SM SCT015 BKN025
     FM181500 05013G20KT P6SM OVC025
     FM182000 08010KT 4SM -RA BR SCT020 BKN030=



000
FTUS42 KCHS 172300
TAFCHS
TAF
KCHS 172321Z 1800/1824 10008KT P6SM SKC
     FM180300 06006KT P6SM SKC
     FM181000 03010KT P6SM SCT025 BKN040
     FM181400 03012G18KT P6SM SCT015 BKN035=



000
FTUS42 KCHS 172100 AAA
TAFSAV
TAF AMD
KSAV 172158Z 1722/1818 11012KT P6SM BKN060
     FM180300 05010KT P6SM BKN050
     FM180800 03012KT P6SM SCT010 BKN025
     FM181500 05015G22KT 6SM BR VCSH SCT007 OVC015=



000
FTUS42 KCHS 172100 AAA
TAFCHS
TAF AMD
KCHS 172149Z 1722/1818 11010KT P6SM SKC
     FM180300 06008KT P6SM SKC
     FM181000 03013KT P6SM SCT020 BKN030
     FM181300 05015G22KT P6SM SCT007 BKN015=



000
FTUS42 KCHS 171700
TAFSAV
TAF
KSAV 171739Z 1718/1818 06011KT P6SM SCT030 BKN050
     FM180800 03012KT P6SM SCT010 BKN025
     FM181500 05015G22KT 6SM BR VCSH SCT007 OVC015=



000
FTUS42 KCHS 171700
TAFCHS
TAF
KCHS 171739Z 1718/1818 05011KT P6SM SCT040 BKN250
     FM181000 03013KT P6SM SCT020 BKN030
     FM181300 05015G22KT P6SM SCT007 BKN015=



000
FTUS42 KCHS 171500 AAA
TAFCHS
TAF AMD
KCHS 171517Z 1715/1812 06011G15KT P6SM SCT040 BKN250
     FM180000 04009KT P6SM SCT035 BKN250
     FM180800 02012KT P6SM SCT020 BKN040=



000
FTUS42 KCHS 171100
TAFCHS
TAF
KCHS 171124Z 1712/1812 05012G19KT P6SM SCT040 BKN250
     FM180000 04009KT P6SM SCT035 BKN250
     FM180800 02012KT P6SM SCT020 BKN040=



000
FTUS42 KCHS 171100
TAFSAV
TAF
KSAV 171124Z 1712/1812 04009G14KT P6SM SCT025 BKN250
     FM171300 05014G20KT P6SM SCT030 BKN050
     FM180000 05009KT P6SM SCT025 BKN250
     FM180800 02012KT P6SM SCT015 BKN035=



000
FTUS42 KCHS 170500
TAFCHS
TAF
KCHS 170521Z 1706/1806 03009G14KT P6SM SCT030
     FM171300 06012G19KT P6SM SCT050
     FM180000 04010KT P6SM SCT040 BKN250=



000
FTUS42 KCHS 170500
TAFSAV
TAF
KSAV 170521Z 1706/1806 01009G14KT P6SM SCT025
     FM171300 06013G20KT P6SM SCT050
     FM180000 04010KT P6SM SCT035 BKN250=



000
FTUS42 KCHS 162300
TAFSAV
TAF
KSAV 162320Z 1700/1724 08009KT P6SM SKC
     FM170500 05006KT P6SM SCT025
     FM170800 04007KT P6SM SCT020 BKN040
     FM171500 05010KT P6SM BKN050=



000
FTUS42 KCHS 162300
TAFCHS
TAF
KCHS 162320Z 1700/1724 11010KT P6SM SKC
     FM170200 05006KT P6SM SKC
     FM170900 04009KT P6SM SCT025
     FM171500 06010KT P6SM SCT050=



000
FTUS42 KCHS 161700
TAFCHS
TAF
KCHS 161739Z 1618/1718 07012G17KT P6SM SKC
     FM162300 06010KT P6SM SCT035
     FM170600 02012KT P6SM SCT030
     FM170900 04013G19KT P6SM SCT025 SCT050=



000
FTUS42 KCHS 161700
TAFSAV
TAF
KSAV 161739Z 1618/1718 06012G17KT P6SM SKC
     FM170000 06010KT P6SM SCT030
     FM170900 03015G21KT P6SM SCT020 BKN050=



    US Dept of Commerce
    National Oceanic and Atmospheric Administration
    National Weather Service
    1325 East West Highway
    Silver Spring, MD 20910
    Page Author: NWS Internet Services Team
Disclaimer
Information Quality
Credits
Glossary
Privacy Policy
Freedom of Information Act (FOIA)
About Us
Career Opportunities